Terminal Aerodrome Forecast
Issued by NWS Detroit/Pontiac, MI

Home | Current Version | Previous Version | Text Only | Print | Product List | Glossary On
Versions: 1 2 3 4 5 6 7 8 9 10 11 12 13 14 15 16
000
FTUS43 KDTX 271100
TAFFNT
TAF
KFNT 271120Z 2712/2812 05006KT P6SM BKN025
      TEMPO 2712/2715 SCT025
     FM271500 35006KT P6SM SCT035 BKN120
     FM271800 33008KT P6SM SCT045 BKN150
     FM272300 02003KT P6SM SKC=

USA.gov is the U.S. government's official web portal to all federal, state and local government web resources and services.